createdAt,value
2024-04-21T00:02:18.591Z,4.16
2024-04-21T00:05:18.621Z,4.02
2024-04-21T00:08:18.550Z,3.98
2024-04-21T00:11:18.667Z,3.81
2024-04-21T00:14:18.497Z,3.69
2024-04-21T00:17:18.457Z,3.47
2024-04-21T00:20:18.444Z,3.19
2024-04-21T00:23:18.422Z,3.11
2024-04-21T00:26:18.360Z,3.10
2024-04-21T00:29:18.344Z,3.22
2024-04-21T00:32:18.299Z,3.22
2024-04-21T00:35:18.279Z,3.16
2024-04-21T00:38:18.227Z,3.13
2024-04-21T00:41:18.220Z,3.18
2024-04-21T00:44:18.181Z,3.16
2024-04-21T00:47:18.216Z,3.19
2024-04-21T00:50:18.151Z,3.14
2024-04-21T00:53:18.143Z,3.16
2024-04-21T00:56:18.197Z,3.05
2024-04-21T00:59:18.150Z,2.87
2024-04-21T01:02:18.134Z,2.92
2024-04-21T01:05:18.083Z,2.87
2024-04-21T01:08:17.932Z,2.92
2024-04-21T01:11:17.936Z,2.85
2024-04-21T01:14:17.919Z,2.86
2024-04-21T01:17:17.871Z,2.80
2024-04-21T01:20:17.827Z,2.77
2024-04-21T01:23:17.798Z,2.74
2024-04-21T01:26:17.780Z,2.74
2024-04-21T01:29:17.745Z,2.62
2024-04-21T01:32:17.741Z,2.60
2024-04-21T01:35:17.683Z,2.65
2024-04-21T01:38:17.648Z,2.54
2024-04-21T01:41:17.623Z,2.47
2024-04-21T01:44:17.581Z,2.46
2024-04-21T01:47:17.650Z,2.43
2024-04-21T01:50:17.555Z,2.43
2024-04-21T01:53:17.488Z,2.38
2024-04-21T01:56:17.474Z,2.42
2024-04-21T01:59:17.459Z,2.31
2024-04-21T02:02:17.460Z,2.28
2024-04-21T02:05:17.380Z,1.94
2024-04-21T02:08:17.341Z,1.76
2024-04-21T02:11:17.319Z,1.52
2024-04-21T02:14:17.304Z,1.59
2024-04-21T02:17:17.291Z,1.73
2024-04-21T02:20:17.221Z,1.63
2024-04-21T02:23:17.189Z,1.62
2024-04-21T02:26:17.169Z,1.77
2024-04-21T02:29:17.163Z,1.84
2024-04-21T02:32:17.135Z,1.77
2024-04-21T02:35:17.096Z,1.71
2024-04-21T02:38:17.062Z,1.77
2024-04-21T02:41:17.050Z,1.87
2024-04-21T02:44:16.996Z,1.85
2024-04-21T02:47:17.011Z,1.97
2024-04-21T02:50:16.933Z,2.04
2024-04-21T02:53:16.900Z,2.06
2024-04-21T02:56:16.886Z,2.00
2024-04-21T02:59:16.850Z,1.99
2024-04-21T03:02:16.905Z,2.06
2024-04-21T03:05:16.780Z,2.06
2024-04-21T03:08:16.748Z,2.04
2024-04-21T03:11:16.732Z,1.99
2024-04-21T03:14:16.699Z,1.91
2024-04-21T03:17:16.609Z,1.88
2024-04-21T03:20:16.611Z,1.89
2024-04-21T03:23:16.566Z,1.88
2024-04-21T03:26:16.524Z,1.76
2024-04-21T03:29:16.542Z,1.84
2024-04-21T03:32:16.505Z,1.77
2024-04-21T03:35:16.496Z,1.68
2024-04-21T03:38:16.393Z,1.67
2024-04-21T03:41:16.376Z,1.66
2024-04-21T03:44:16.333Z,1.70
2024-04-21T03:47:16.346Z,1.73
2024-04-21T03:50:16.300Z,1.74
2024-04-21T03:53:16.245Z,1.76
2024-04-21T03:56:16.237Z,1.73
2024-04-21T03:59:16.216Z,1.78
2024-04-21T04:02:16.196Z,1.84
2024-04-21T04:05:16.138Z,1.87
2024-04-21T04:08:16.090Z,1.91
2024-04-21T04:11:16.115Z,1.94
2024-04-21T04:14:16.049Z,1.99
2024-04-21T04:17:16.069Z,2.02
2024-04-21T04:20:15.983Z,2.02
2024-04-21T04:23:15.953Z,2.08
2024-04-21T04:26:15.927Z,2.04
2024-04-21T04:29:15.919Z,2.08
2024-04-21T04:32:15.895Z,2.13
2024-04-21T04:35:15.839Z,2.14
2024-04-21T04:38:15.810Z,2.20
2024-04-21T04:41:15.785Z,2.32
2024-04-21T04:44:15.779Z,2.32
2024-04-21T04:47:15.751Z,2.38
2024-04-21T04:50:15.690Z,2.35
2024-04-21T04:53:15.654Z,2.42
2024-04-21T04:56:15.630Z,2.43
2024-04-21T04:59:15.606Z,2.43
2024-04-21T05:02:15.571Z,2.43
2024-04-21T05:05:15.554Z,2.39
2024-04-21T05:08:15.492Z,2.44
2024-04-21T05:11:15.563Z,2.56
2024-04-21T05:14:15.439Z,2.65
2024-04-21T05:17:15.432Z,2.89
2024-04-21T05:20:15.398Z,3.00
2024-04-21T05:23:15.364Z,3.18
2024-04-21T05:26:15.314Z,3.26
2024-04-21T05:29:15.308Z,3.47
2024-04-21T05:32:15.310Z,3.50
2024-04-21T05:35:15.300Z,3.62
2024-04-21T05:38:15.239Z,3.56
2024-04-21T05:41:15.164Z,3.68
2024-04-21T05:44:15.157Z,3.86
2024-04-21T05:47:15.198Z,4.14
2024-04-21T05:50:15.151Z,4.50
2024-04-21T05:53:15.098Z,4.71
2024-04-21T05:56:15.077Z,4.78
2024-04-21T05:59:15.030Z,4.77
2024-04-21T06:02:14.967Z,4.74
2024-04-21T06:05:15.107Z,4.80
2024-04-21T06:08:14.930Z,4.75
2024-04-21T06:11:14.898Z,4.74
2024-04-21T06:14:14.858Z,4.75
2024-04-21T06:17:14.810Z,4.78
2024-04-21T06:20:14.814Z,4.93
2024-04-21T06:23:14.868Z,5.07
2024-04-21T06:26:14.724Z,5.18
2024-04-21T06:29:14.729Z,5.25
2024-04-21T06:32:14.678Z,5.28
2024-04-21T06:35:14.662Z,5.25
2024-04-21T06:38:14.625Z,5.28
2024-04-21T06:41:14.596Z,5.41
2024-04-21T06:44:14.545Z,5.41
2024-04-21T06:47:14.552Z,5.50
2024-04-21T06:50:14.582Z,5.53
2024-04-21T06:53:14.496Z,5.53
2024-04-21T06:56:14.417Z,5.59
2024-04-21T06:59:14.505Z,5.68
2024-04-21T07:02:14.438Z,5.79
2024-04-21T07:05:14.335Z,5.91
2024-04-21T07:08:14.353Z,6.05
2024-04-21T07:11:14.302Z,6.11
2024-04-21T07:14:20.360Z,6.12
2024-04-21T07:17:14.193Z,6.04
2024-04-21T07:20:14.188Z,6.17
2024-04-21T07:23:14.148Z,6.30
2024-04-21T07:26:14.117Z,6.36
2024-04-21T07:29:14.129Z,6.38
2024-04-21T07:32:14.033Z,6.39
2024-04-21T07:35:14.078Z,6.42
2024-04-21T07:38:13.992Z,6.57
2024-04-21T07:41:13.952Z,6.59
2024-04-21T07:44:13.955Z,6.60
2024-04-21T07:47:14.014Z,6.78
2024-04-21T07:50:13.952Z,6.87
2024-04-21T07:53:13.842Z,7.07
2024-04-21T07:56:13.912Z,7.23
2024-04-21T07:59:20.303Z,7.31
2024-04-21T08:02:13.750Z,7.38
2024-04-21T08:05:13.710Z,7.39
2024-04-21T08:08:13.764Z,7.43
2024-04-21T08:11:13.689Z,7.51
2024-04-21T08:14:13.618Z,7.70
2024-04-21T08:17:13.647Z,7.73
2024-04-21T08:20:13.665Z,7.80
2024-04-21T08:23:13.702Z,7.85
2024-04-21T08:26:13.501Z,7.88
2024-04-21T08:29:13.543Z,7.88
2024-04-21T08:32:13.541Z,7.97
2024-04-21T08:35:13.496Z,8.08
2024-04-21T08:38:13.401Z,8.24
2024-04-21T08:41:13.371Z,8.34
2024-04-21T08:44:13.722Z,8.42
2024-04-21T08:47:13.285Z,8.51
2024-04-21T08:50:13.259Z,8.60
2024-04-21T08:53:13.320Z,8.66
2024-04-21T08:56:13.176Z,8.70
2024-04-21T08:59:13.206Z,8.56
2024-04-21T09:02:13.211Z,8.73
2024-04-21T09:05:13.143Z,8.63
2024-04-21T09:08:13.066Z,8.88
2024-04-21T09:11:13.171Z,9.02
2024-04-21T09:14:13.047Z,9.31
2024-04-21T09:17:13.008Z,9.48
2024-04-21T09:20:13.092Z,9.74
2024-04-21T09:23:12.952Z,9.79
2024-04-21T09:26:12.859Z,9.82
2024-04-21T09:29:12.915Z,9.73
2024-04-21T09:32:12.849Z,9.65
2024-04-21T09:35:12.866Z,9.36
2024-04-21T09:38:12.774Z,9.55
2024-04-21T09:41:12.743Z,9.64
2024-04-21T09:44:12.784Z,9.55
2024-04-21T09:47:12.672Z,9.43
2024-04-21T09:50:12.695Z,9.31
2024-04-21T09:53:12.628Z,9.21
2024-04-21T09:56:12.580Z,9.22
2024-04-21T09:59:12.615Z,9.22
2024-04-21T10:02:12.536Z,9.10
2024-04-21T10:05:12.545Z,9.16
2024-04-21T10:08:12.552Z,9.50
2024-04-21T10:11:12.554Z,9.99
2024-04-21T10:14:12.450Z,10.40
2024-04-21T10:17:12.391Z,10.96
2024-04-21T10:20:12.435Z,11.10
2024-04-21T10:23:12.309Z,11.11
2024-04-21T10:26:12.367Z,11.43
2024-04-21T10:29:12.305Z,11.70
2024-04-21T10:32:12.258Z,11.86
2024-04-21T10:35:12.234Z,11.22
2024-04-21T10:38:12.235Z,10.99
2024-04-21T10:41:12.210Z,11.17
2024-04-21T10:44:12.171Z,11.45
2024-04-21T10:47:12.079Z,11.22
2024-04-21T10:50:12.088Z,11.25
2024-04-21T10:53:12.002Z,10.99
2024-04-21T10:56:12.120Z,11.07
2024-04-21T10:59:11.946Z,11.10
2024-04-21T11:02:11.952Z,10.72
2024-04-21T11:05:11.994Z,10.57
2024-04-21T11:08:11.881Z,10.63
2024-04-21T11:11:11.935Z,10.69
2024-04-21T11:14:11.933Z,10.71
2024-04-21T11:17:11.777Z,11.27
2024-04-21T11:20:11.783Z,11.80
2024-04-21T11:23:11.750Z,11.83
2024-04-21T11:26:11.714Z,12.02
2024-04-21T11:29:11.654Z,12.10
2024-04-21T11:32:14.765Z,12.10
2024-04-21T11:35:11.690Z,12.06
2024-04-21T11:38:11.594Z,11.60
2024-04-21T11:41:11.621Z,11.57
2024-04-21T11:44:11.517Z,11.63
2024-04-21T11:47:11.520Z,11.78
2024-04-21T11:50:11.434Z,11.68
2024-04-21T11:53:11.385Z,11.45
2024-04-21T11:56:11.432Z,11.62
2024-04-21T11:59:11.338Z,11.50
2024-04-21T12:02:11.311Z,11.43
2024-04-21T12:05:11.381Z,11.54
2024-04-21T12:08:11.347Z,11.77
2024-04-21T12:11:11.295Z,12.31
2024-04-21T12:14:11.207Z,12.70
2024-04-21T12:17:11.160Z,12.39
2024-04-21T12:20:11.129Z,12.02
2024-04-21T12:23:11.062Z,12.24
2024-04-21T12:26:11.103Z,12.50
2024-04-21T12:29:11.054Z,12.43
2024-04-21T12:32:11.062Z,11.86
2024-04-21T12:35:10.933Z,11.18
2024-04-21T12:38:10.919Z,11.60
2024-04-21T12:41:10.916Z,12.22
2024-04-21T12:44:10.855Z,12.15
2024-04-21T12:47:10.946Z,12.28
2024-04-21T12:50:10.804Z,12.36
2024-04-21T12:53:10.798Z,12.53
2024-04-21T12:56:10.789Z,12.42
2024-04-21T12:59:10.772Z,11.97
2024-04-21T13:02:10.797Z,11.91
2024-04-21T13:05:10.826Z,11.80
2024-04-21T13:08:10.593Z,11.88
2024-04-21T13:11:10.703Z,11.78
2024-04-21T13:14:10.639Z,11.72
2024-04-21T13:17:10.637Z,11.60
2024-04-21T13:20:10.512Z,11.54
2024-04-21T13:23:10.438Z,11.73
2024-04-21T13:26:10.467Z,11.88
2024-04-21T13:29:10.424Z,12.03
2024-04-21T13:32:10.593Z,12.22
2024-04-21T13:35:10.455Z,11.75
2024-04-21T13:38:10.340Z,11.25
2024-04-21T13:41:10.301Z,11.63
2024-04-21T13:44:10.303Z,11.52
2024-04-21T13:47:10.241Z,11.84
2024-04-21T13:50:10.190Z,11.70
2024-04-21T13:53:10.273Z,11.60
2024-04-21T13:56:10.110Z,11.95
2024-04-21T13:59:16.050Z,11.81
2024-04-21T14:02:10.029Z,11.69
2024-04-21T14:05:10.026Z,11.57
2024-04-21T14:08:09.945Z,11.30
2024-04-21T14:11:09.974Z,11.55
2024-04-21T14:14:09.897Z,11.91
2024-04-21T14:17:10.011Z,12.35
2024-04-21T14:20:09.871Z,12.49
2024-04-21T14:23:09.797Z,12.60
2024-04-21T14:26:09.766Z,11.95
2024-04-21T14:29:09.719Z,11.43
2024-04-21T14:32:09.710Z,11.57
2024-04-21T14:35:09.690Z,11.80
2024-04-21T14:38:09.638Z,11.87
2024-04-21T14:41:09.646Z,12.15
2024-04-21T14:44:09.583Z,12.50
2024-04-21T14:47:09.619Z,12.82
2024-04-21T14:50:09.553Z,13.03
2024-04-21T14:53:09.486Z,13.03
2024-04-21T14:56:09.491Z,13.09
2024-04-21T14:59:09.446Z,12.83
2024-04-21T15:02:09.438Z,12.58
2024-04-21T15:05:09.662Z,11.84
2024-04-21T15:08:09.349Z,11.63
2024-04-21T15:11:09.373Z,11.08
2024-04-21T15:14:09.257Z,10.51
2024-04-21T15:17:09.259Z,10.40
2024-04-21T15:20:09.263Z,10.16
2024-04-21T15:23:09.210Z,9.73
2024-04-21T15:26:09.172Z,8.87
2024-04-21T15:29:09.118Z,8.64
2024-04-21T15:32:09.310Z,8.37
2024-04-21T15:35:09.090Z,8.42
2024-04-21T15:38:09.042Z,8.31
2024-04-21T15:41:09.011Z,8.08
2024-04-21T15:44:08.981Z,8.01
2024-04-21T15:47:09.015Z,8.19
2024-04-21T15:50:08.913Z,7.94
2024-04-21T15:53:08.881Z,7.56
2024-04-21T15:56:08.879Z,7.63
2024-04-21T15:59:08.828Z,7.70
2024-04-21T16:02:08.855Z,7.56
2024-04-21T16:05:08.893Z,7.48
2024-04-21T16:08:09.601Z,7.56
2024-04-21T16:11:08.750Z,7.36
2024-04-21T16:14:08.650Z,7.24
2024-04-21T16:17:08.827Z,7.36
2024-04-21T16:20:08.636Z,7.50
2024-04-21T16:23:08.579Z,7.61
2024-04-21T16:26:08.604Z,7.57
2024-04-21T16:29:08.577Z,7.42
2024-04-21T16:32:08.539Z,7.40
2024-04-21T16:35:08.445Z,7.25
2024-04-21T16:38:08.460Z,7.23
2024-04-21T16:41:08.416Z,7.32
2024-04-21T16:44:08.404Z,7.45
2024-04-21T16:47:08.422Z,7.53
2024-04-21T16:50:08.319Z,7.39
2024-04-21T16:53:08.283Z,7.40
2024-04-21T16:56:08.269Z,7.40
2024-04-21T16:59:08.216Z,7.39
2024-04-21T17:02:08.236Z,7.23
2024-04-21T17:05:08.219Z,7.29
2024-04-21T17:08:08.173Z,7.47
2024-04-21T17:11:08.183Z,7.43
2024-04-21T17:14:08.079Z,7.42
2024-04-21T17:17:08.195Z,7.54
2024-04-21T17:20:08.026Z,7.63
2024-04-21T17:23:09.379Z,7.50
2024-04-21T17:26:07.953Z,7.23
2024-04-21T17:29:10.517Z,7.28
2024-04-21T17:32:07.906Z,7.33
2024-04-21T17:35:07.949Z,7.21
2024-04-21T17:38:07.874Z,7.25
2024-04-21T17:41:07.843Z,7.36
2024-04-21T17:44:07.790Z,7.33
2024-04-21T17:47:07.830Z,7.42
2024-04-21T17:50:07.726Z,7.39
2024-04-21T17:53:07.737Z,7.42
2024-04-21T17:56:07.681Z,7.17
2024-04-21T17:59:07.616Z,7.02
2024-04-21T18:02:07.575Z,6.93
2024-04-21T18:05:07.608Z,6.72
2024-04-21T18:08:07.564Z,6.67
2024-04-21T18:11:07.586Z,6.72
2024-04-21T18:14:07.482Z,6.70
2024-04-21T18:17:13.966Z,6.72
2024-04-21T18:20:07.463Z,6.77
2024-04-21T18:23:07.394Z,6.69
2024-04-21T18:26:07.374Z,6.48
2024-04-21T18:29:07.302Z,6.44
2024-04-21T18:32:07.342Z,6.36
2024-04-21T18:35:07.276Z,6.36
2024-04-21T18:38:07.254Z,6.35
2024-04-21T18:41:07.265Z,6.36
2024-04-21T18:44:07.145Z,6.35
2024-04-21T18:47:07.260Z,6.41
2024-04-21T18:50:07.131Z,6.48
2024-04-21T18:53:07.195Z,6.41
2024-04-21T18:56:07.108Z,6.35
2024-04-21T18:59:07.099Z,6.39
2024-04-21T19:02:07.195Z,6.38
2024-04-21T19:05:07.006Z,6.33
2024-04-21T19:08:06.997Z,6.22
2024-04-21T19:11:07.044Z,6.16
2024-04-21T19:14:07.171Z,6.09
2024-04-21T19:17:06.934Z,6.09
2024-04-21T19:20:06.907Z,6.14
2024-04-21T19:23:06.806Z,6.05
2024-04-21T19:26:06.850Z,5.99
2024-04-21T19:29:06.747Z,6.02
2024-04-21T19:32:06.920Z,5.94
2024-04-21T19:35:06.711Z,5.80
2024-04-21T19:38:06.740Z,5.83
2024-04-21T19:41:06.699Z,5.87
2024-04-21T19:44:06.621Z,5.89
2024-04-21T19:47:06.642Z,5.84
2024-04-21T19:50:06.531Z,5.72
2024-04-21T19:53:06.518Z,5.68
2024-04-21T19:56:06.545Z,5.69
2024-04-21T19:59:09.275Z,5.50
2024-04-21T20:02:06.511Z,5.44
2024-04-21T20:05:06.403Z,5.36
2024-04-21T20:08:06.384Z,5.36
2024-04-21T20:11:06.337Z,5.36
2024-04-21T20:14:06.325Z,5.17
2024-04-21T20:17:06.341Z,5.10
2024-04-21T20:20:06.250Z,4.99
2024-04-21T20:23:06.204Z,4.97
2024-04-21T20:26:06.205Z,4.96
2024-04-21T20:29:06.155Z,5.00
2024-04-21T20:32:06.153Z,4.90
2024-04-21T20:35:06.078Z,4.74
2024-04-21T20:38:06.074Z,4.71
2024-04-21T20:41:06.031Z,4.67
2024-04-21T20:44:06.018Z,4.62
2024-04-21T20:47:06.012Z,4.58
2024-04-21T20:50:05.981Z,4.45
2024-04-21T20:53:05.971Z,4.52
2024-04-21T20:56:05.906Z,4.52
2024-04-21T20:59:05.925Z,4.45
2024-04-21T21:02:05.915Z,4.52
2024-04-21T21:05:05.829Z,4.45
2024-04-21T21:08:05.820Z,4.40
2024-04-21T21:11:05.802Z,4.40
2024-04-21T21:14:05.788Z,4.38
2024-04-21T21:17:05.773Z,4.41
2024-04-21T21:20:05.706Z,4.31
2024-04-21T21:23:05.603Z,4.22
2024-04-21T21:26:06.623Z,4.12
2024-04-21T21:29:05.557Z,4.12
2024-04-21T21:32:05.588Z,3.98
2024-04-21T21:35:08.635Z,3.94
2024-04-21T21:38:05.537Z,3.92
2024-04-21T21:41:05.550Z,3.88
2024-04-21T21:44:05.455Z,3.88
2024-04-21T21:47:05.395Z,3.87
2024-04-21T21:50:05.365Z,3.87
2024-04-21T21:53:05.326Z,3.83
2024-04-21T21:56:05.337Z,3.76
2024-04-21T21:59:05.276Z,3.68
2024-04-21T22:02:05.396Z,3.69
2024-04-21T22:05:08.655Z,3.76
2024-04-21T22:08:05.385Z,3.69
2024-04-21T22:11:05.291Z,3.60
2024-04-21T22:14:05.094Z,3.53
2024-04-21T22:17:05.119Z,3.50
2024-04-21T22:20:05.056Z,3.47
2024-04-21T22:23:05.033Z,3.51
2024-04-21T22:26:04.993Z,3.50
2024-04-21T22:29:04.939Z,3.42
2024-04-21T22:32:05.010Z,3.41
2024-04-21T22:35:04.901Z,3.40
2024-04-21T22:38:04.841Z,3.44
2024-04-21T22:41:04.842Z,3.40
2024-04-21T22:44:04.779Z,3.34
2024-04-21T22:47:04.780Z,3.32
2024-04-21T22:50:04.737Z,3.34
2024-04-21T22:53:04.715Z,3.28
2024-04-21T22:56:04.688Z,3.26
2024-04-21T22:59:04.658Z,3.22
2024-04-21T23:02:04.633Z,3.22
2024-04-21T23:05:04.612Z,3.14
2024-04-21T23:08:04.543Z,3.13
2024-04-21T23:11:04.599Z,3.07
2024-04-21T23:14:04.493Z,3.00
2024-04-21T23:17:04.477Z,2.97
2024-04-21T23:20:04.443Z,2.89
2024-04-21T23:23:04.422Z,2.79
2024-04-21T23:26:04.374Z,2.71
2024-04-21T23:29:04.334Z,2.74
2024-04-21T23:32:04.420Z,2.71
2024-04-21T23:35:04.398Z,2.71
2024-04-21T23:38:04.343Z,2.65
2024-04-21T23:41:06.199Z,2.68
2024-04-21T23:44:04.189Z,2.67
2024-04-21T23:47:04.318Z,2.50
2024-04-21T23:50:04.132Z,2.50
2024-04-21T23:53:04.137Z,2.53
2024-04-21T23:56:04.096Z,2.60
2024-04-21T23:59:04.049Z,2.51
